sensor_id;sensor_type;location;lat;lon;timestamp;P1;durP1;ratioP1;P2;durP2;ratioP2
41436;SDS011;27178;49.460;10.850;2022-07-06T00:00:09;4.20;;;1.55;;
41436;SDS011;27178;49.460;10.850;2022-07-06T00:02:38;1.27;;;1.15;;
41436;SDS011;27178;49.460;10.850;2022-07-06T00:05:07;1.27;;;1.15;;
41436;SDS011;27178;49.460;10.850;2022-07-06T00:07:35;1.77;;;1.30;;
41436;SDS011;27178;49.460;10.850;2022-07-06T00:10:04;1.98;;;1.42;;
41436;SDS011;27178;49.460;10.850;2022-07-06T00:12:33;1.35;;;1.20;;
41436;SDS011;27178;49.460;10.850;2022-07-06T00:15:01;2.10;;;1.08;;
41436;SDS011;27178;49.460;10.850;2022-07-06T00:17:31;1.85;;;1.33;;
41436;SDS011;27178;49.460;10.850;2022-07-06T00:19:59;1.90;;;1.40;;
41436;SDS011;27178;49.460;10.850;2022-07-06T00:22:27;1.88;;;1.60;;
41436;SDS011;27178;49.460;10.850;2022-07-06T00:24:55;1.58;;;1.42;;
41436;SDS011;27178;49.460;10.850;2022-07-06T00:27:23;1.42;;;1.10;;
41436;SDS011;27178;49.460;10.850;2022-07-06T00:29:51;1.30;;;1.20;;
41436;SDS011;27178;49.460;10.850;2022-07-06T00:32:19;5.75;;;1.27;;
41436;SDS011;27178;49.460;10.850;2022-07-06T00:34:49;1.52;;;1.42;;
41436;SDS011;27178;49.460;10.850;2022-07-06T00:37:17;1.50;;;1.40;;
41436;SDS011;27178;49.460;10.850;2022-07-06T00:39:46;1.45;;;1.35;;
41436;SDS011;27178;49.460;10.850;2022-07-06T00:42:14;1.30;;;1.20;;
41436;SDS011;27178;49.460;10.850;2022-07-06T00:44:59;3.35;;;1.38;;
41436;SDS011;27178;49.460;10.850;2022-07-06T00:47:27;1.70;;;1.60;;
41436;SDS011;27178;49.460;10.850;2022-07-06T00:49:57;1.52;;;1.40;;
41436;SDS011;27178;49.460;10.850;2022-07-06T00:52:47;1.50;;;1.40;;
41436;SDS011;27178;49.460;10.850;2022-07-06T00:55:17;1.98;;;1.40;;
41436;SDS011;27178;49.460;10.850;2022-07-06T00:57:46;3.10;;;1.40;;
41436;SDS011;27178;49.460;10.850;2022-07-06T01:00:15;1.50;;;1.40;;
41436;SDS011;27178;49.460;10.850;2022-07-06T01:02:46;1.45;;;1.30;;
41436;SDS011;27178;49.460;10.850;2022-07-06T01:05:16;3.03;;;1.50;;
41436;SDS011;27178;49.460;10.850;2022-07-06T01:07:45;1.45;;;1.20;;
41436;SDS011;27178;49.460;10.850;2022-07-06T01:10:15;1.55;;;1.33;;
41436;SDS011;27178;49.460;10.850;2022-07-06T01:12:45;2.75;;;1.60;;
41436;SDS011;27178;49.460;10.850;2022-07-06T01:15:15;1.52;;;1.40;;
41436;SDS011;27178;49.460;10.850;2022-07-06T01:17:44;2.92;;;1.60;;
41436;SDS011;27178;49.460;10.850;2022-07-06T01:20:15;1.30;;;1.20;;
41436;SDS011;27178;49.460;10.850;2022-07-06T01:22:44;1.27;;;1.17;;
41436;SDS011;27178;49.460;10.850;2022-07-06T01:25:13;2.45;;;1.52;;
41436;SDS011;27178;49.460;10.850;2022-07-06T01:27:42;1.60;;;1.50;;
41436;SDS011;27178;49.460;10.850;2022-07-06T01:30:11;1.77;;;1.23;;
41436;SDS011;27178;49.460;10.850;2022-07-06T01:32:40;1.85;;;1.33;;
41436;SDS011;27178;49.460;10.850;2022-07-06T01:35:10;1.67;;;1.40;;
41436;SDS011;27178;49.460;10.850;2022-07-06T01:37:41;2.00;;;1.50;;
41436;SDS011;27178;49.460;10.850;2022-07-06T01:40:10;2.85;;;1.60;;
41436;SDS011;27178;49.460;10.850;2022-07-06T01:42:39;1.58;;;1.48;;
41436;SDS011;27178;49.460;10.850;2022-07-06T01:45:08;1.95;;;1.48;;
41436;SDS011;27178;49.460;10.850;2022-07-06T01:47:37;1.63;;;1.52;;
41436;SDS011;27178;49.460;10.850;2022-07-06T01:50:06;1.98;;;1.70;;
41436;SDS011;27178;49.460;10.850;2022-07-06T01:52:35;1.67;;;1.25;;
41436;SDS011;27178;49.460;10.850;2022-07-06T01:55:05;1.23;;;1.17;;
41436;SDS011;27178;49.460;10.850;2022-07-06T01:57:47;2.00;;;1.48;;
41436;SDS011;27178;49.460;10.850;2022-07-06T02:00:15;1.65;;;1.30;;
41436;SDS011;27178;49.460;10.850;2022-07-06T02:02:43;2.08;;;1.80;;
41436;SDS011;27178;49.460;10.850;2022-07-06T02:05:11;2.13;;;1.52;;
41436;SDS011;27178;49.460;10.850;2022-07-06T02:07:40;1.80;;;1.50;;
41436;SDS011;27178;49.460;10.850;2022-07-06T02:10:09;1.40;;;1.30;;
41436;SDS011;27178;49.460;10.850;2022-07-06T02:12:38;1.65;;;1.55;;
41436;SDS011;27178;49.460;10.850;2022-07-06T02:15:06;1.15;;;1.15;;
41436;SDS011;27178;49.460;10.850;2022-07-06T02:17:35;1.60;;;1.50;;
41436;SDS011;27178;49.460;10.850;2022-07-06T02:20:04;1.60;;;1.50;;
41436;SDS011;27178;49.460;10.850;2022-07-06T02:22:33;1.55;;;1.45;;
41436;SDS011;27178;49.460;10.850;2022-07-06T02:25:02;1.48;;;1.38;;
41436;SDS011;27178;49.460;10.850;2022-07-06T02:27:33;1.77;;;1.50;;
41436;SDS011;27178;49.460;10.850;2022-07-06T02:30:01;1.58;;;1.48;;
41436;SDS011;27178;49.460;10.850;2022-07-06T02:32:30;1.55;;;1.25;;
41436;SDS011;27178;49.460;10.850;2022-07-06T02:34:58;1.80;;;1.30;;
41436;SDS011;27178;49.460;10.850;2022-07-06T02:37:27;2.38;;;1.70;;
41436;SDS011;27178;49.460;10.850;2022-07-06T02:39:55;3.22;;;1.42;;
41436;SDS011;27178;49.460;10.850;2022-07-06T02:42:22;6.13;;;1.70;;
41436;SDS011;27178;49.460;10.850;2022-07-06T02:44:53;1.88;;;1.30;;
41436;SDS011;27178;49.460;10.850;2022-07-06T02:47:21;1.40;;;1.20;;
41436;SDS011;27178;49.460;10.850;2022-07-06T02:49:49;1.52;;;1.42;;
41436;SDS011;27178;49.460;10.850;2022-07-06T02:52:17;2.83;;;1.50;;
41436;SDS011;27178;49.460;10.850;2022-07-06T02:54:45;2.10;;;1.63;;
41436;SDS011;27178;49.460;10.850;2022-07-06T02:57:15;2.00;;;1.50;;
41436;SDS011;27178;49.460;10.850;2022-07-06T02:59:43;1.70;;;1.52;;
41436;SDS011;27178;49.460;10.850;2022-07-06T03:02:13;2.35;;;1.52;;
41436;SDS011;27178;49.460;10.850;2022-07-06T03:04:41;3.28;;;1.60;;
41436;SDS011;27178;49.460;10.850;2022-07-06T03:07:09;2.05;;;1.60;;
41436;SDS011;27178;49.460;10.850;2022-07-06T03:09:37;1.45;;;1.40;;
41436;SDS011;27178;49.460;10.850;2022-07-06T03:12:06;1.90;;;1.40;;
41436;SDS011;27178;49.460;10.850;2022-07-06T03:14:35;2.58;;;1.50;;
41436;SDS011;27178;49.460;10.850;2022-07-06T03:17:03;1.40;;;1.30;;
41436;SDS011;27178;49.460;10.850;2022-07-06T03:19:33;1.55;;;1.45;;
41436;SDS011;27178;49.460;10.850;2022-07-06T03:22:02;1.48;;;1.38;;
41436;SDS011;27178;49.460;10.850;2022-07-06T03:24:31;2.33;;;1.42;;
41436;SDS011;27178;49.460;10.850;2022-07-06T03:26:59;3.75;;;1.73;;
41436;SDS011;27178;49.460;10.850;2022-07-06T03:29:27;2.17;;;1.40;;
41436;SDS011;27178;49.460;10.850;2022-07-06T03:31:56;3.70;;;1.50;;
41436;SDS011;27178;49.460;10.850;2022-07-06T03:34:24;4.22;;;1.63;;
41436;SDS011;27178;49.460;10.850;2022-07-06T03:36:54;1.50;;;1.33;;
41436;SDS011;27178;49.460;10.850;2022-07-06T03:39:22;3.08;;;2.00;;
41436;SDS011;27178;49.460;10.850;2022-07-06T03:41:50;6.22;;;1.83;;
41436;SDS011;27178;49.460;10.850;2022-07-06T03:44:18;1.98;;;1.38;;
41436;SDS011;27178;49.460;10.850;2022-07-06T03:46:46;1.52;;;1.42;;
41436;SDS011;27178;49.460;10.850;2022-07-06T03:49:16;1.55;;;1.33;;
41436;SDS011;27178;49.460;10.850;2022-07-06T03:51:44;4.97;;;1.52;;
41436;SDS011;27178;49.460;10.850;2022-07-06T03:54:13;2.15;;;1.60;;
41436;SDS011;27178;49.460;10.850;2022-07-06T03:56:41;1.70;;;1.60;;
41436;SDS011;27178;49.460;10.850;2022-07-06T03:59:09;1.65;;;1.38;;
41436;SDS011;27178;49.460;10.850;2022-07-06T04:01:37;1.73;;;1.63;;
41436;SDS011;27178;49.460;10.850;2022-07-06T04:04:06;2.33;;;1.60;;
41436;SDS011;27178;49.460;10.850;2022-07-06T04:06:34;1.77;;;1.30;;
41436;SDS011;27178;49.460;10.850;2022-07-06T04:09:02;3.13;;;1.52;;
41436;SDS011;27178;49.460;10.850;2022-07-06T04:11:32;1.60;;;1.40;;
41436;SDS011;27178;49.460;10.850;2022-07-06T04:14:00;1.63;;;1.52;;
41436;SDS011;27178;49.460;10.850;2022-07-06T04:16:29;1.50;;;1.40;;
41436;SDS011;27178;49.460;10.850;2022-07-06T04:18:57;2.10;;;1.90;;
41436;SDS011;27178;49.460;10.850;2022-07-06T04:21:25;1.75;;;1.65;;
41436;SDS011;27178;49.460;10.850;2022-07-06T04:23:53;1.95;;;1.55;;
41436;SDS011;27178;49.460;10.850;2022-07-06T04:26:21;1.88;;;1.70;;
41436;SDS011;27178;49.460;10.850;2022-07-06T04:31:28;1.70;;;1.60;;
41436;SDS011;27178;49.460;10.850;2022-07-06T04:33:56;1.60;;;1.50;;
41436;SDS011;27178;49.460;10.850;2022-07-06T04:36:27;2.40;;;1.48;;
41436;SDS011;27178;49.460;10.850;2022-07-06T04:38:55;6.45;;;1.65;;
41436;SDS011;27178;49.460;10.850;2022-07-06T04:41:29;1.38;;;1.27;;
41436;SDS011;27178;49.460;10.850;2022-07-06T04:43:57;1.73;;;1.60;;
41436;SDS011;27178;49.460;10.850;2022-07-06T04:46:26;1.65;;;1.55;;
41436;SDS011;27178;49.460;10.850;2022-07-06T04:48:54;1.75;;;1.50;;
41436;SDS011;27178;49.460;10.850;2022-07-06T04:51:22;4.82;;;1.67;;
41436;SDS011;27178;49.460;10.850;2022-07-06T04:53:51;1.58;;;1.48;;
41436;SDS011;27178;49.460;10.850;2022-07-06T04:56:19;2.20;;;1.70;;
41436;SDS011;27178;49.460;10.850;2022-07-06T04:58:47;1.90;;;1.70;;
41436;SDS011;27178;49.460;10.850;2022-07-06T05:03:54;1.50;;;1.40;;
41436;SDS011;27178;49.460;10.850;2022-07-06T05:06:22;1.65;;;1.55;;
41436;SDS011;27178;49.460;10.850;2022-07-06T05:08:50;1.95;;;1.65;;
41436;SDS011;27178;49.460;10.850;2022-07-06T05:14:05;1.63;;;1.50;;
41436;SDS011;27178;49.460;10.850;2022-07-06T05:16:35;1.80;;;1.70;;
41436;SDS011;27178;49.460;10.850;2022-07-06T05:19:05;1.83;;;1.65;;
41436;SDS011;27178;49.460;10.850;2022-07-06T05:21:33;1.52;;;1.42;;
41436;SDS011;27178;49.460;10.850;2022-07-06T05:24:01;1.75;;;1.65;;
41436;SDS011;27178;49.460;10.850;2022-07-06T05:26:29;2.08;;;1.95;;
41436;SDS011;27178;49.460;10.850;2022-07-06T05:28:58;2.00;;;1.90;;
41436;SDS011;27178;49.460;10.850;2022-07-06T05:31:26;2.80;;;1.60;;
41436;SDS011;27178;49.460;10.850;2022-07-06T05:33:54;2.35;;;2.00;;
41436;SDS011;27178;49.460;10.850;2022-07-06T05:36:24;3.15;;;2.20;;
41436;SDS011;27178;49.460;10.850;2022-07-06T05:38:52;1.85;;;1.70;;
41436;SDS011;27178;49.460;10.850;2022-07-06T05:41:21;1.75;;;1.63;;
41436;SDS011;27178;49.460;10.850;2022-07-06T05:43:56;2.90;;;1.50;;
41436;SDS011;27178;49.460;10.850;2022-07-06T05:46:24;1.92;;;1.73;;
41436;SDS011;27178;49.460;10.850;2022-07-06T05:48:52;2.00;;;1.80;;
41436;SDS011;27178;49.460;10.850;2022-07-06T05:51:39;6.82;;;1.73;;
41436;SDS011;27178;49.460;10.850;2022-07-06T05:54:07;6.55;;;1.67;;
41436;SDS011;27178;49.460;10.850;2022-07-06T05:56:35;2.17;;;1.88;;
41436;SDS011;27178;49.460;10.850;2022-07-06T05:59:03;2.15;;;1.73;;
41436;SDS011;27178;49.460;10.850;2022-07-06T06:01:31;1.80;;;1.70;;
41436;SDS011;27178;49.460;10.850;2022-07-06T06:04:00;1.45;;;1.38;;
41436;SDS011;27178;49.460;10.850;2022-07-06T06:06:28;1.80;;;1.70;;
41436;SDS011;27178;49.460;10.850;2022-07-06T06:09:06;1.67;;;1.58;;
41436;SDS011;27178;49.460;10.850;2022-07-06T06:11:34;1.65;;;1.45;;
41436;SDS011;27178;49.460;10.850;2022-07-06T06:14:02;1.70;;;1.60;;
41436;SDS011;27178;49.460;10.850;2022-07-06T06:16:33;2.13;;;1.45;;
41436;SDS011;27178;49.460;10.850;2022-07-06T06:19:01;2.40;;;1.52;;
41436;SDS011;27178;49.460;10.850;2022-07-06T06:21:30;1.33;;;1.23;;
41436;SDS011;27178;49.460;10.850;2022-07-06T06:23:58;2.60;;;1.27;;
41436;SDS011;27178;49.460;10.850;2022-07-06T06:26:28;1.98;;;1.58;;
41436;SDS011;27178;49.460;10.850;2022-07-06T06:28:56;1.90;;;1.50;;
41436;SDS011;27178;49.460;10.850;2022-07-06T06:31:24;2.65;;;1.55;;
41436;SDS011;27178;49.460;10.850;2022-07-06T06:33:53;1.73;;;1.63;;
41436;SDS011;27178;49.460;10.850;2022-07-06T06:36:21;1.75;;;1.42;;
41436;SDS011;27178;49.460;10.850;2022-07-06T06:38:49;1.88;;;1.60;;
41436;SDS011;27178;49.460;10.850;2022-07-06T06:41:22;3.85;;;1.63;;
41436;SDS011;27178;49.460;10.850;2022-07-06T06:43:51;3.13;;;1.90;;
41436;SDS011;27178;49.460;10.850;2022-07-06T06:46:20;1.92;;;1.27;;
41436;SDS011;27178;49.460;10.850;2022-07-06T06:48:48;1.73;;;1.55;;
41436;SDS011;27178;49.460;10.850;2022-07-06T06:51:16;2.60;;;1.48;;
41436;SDS011;27178;49.460;10.850;2022-07-06T06:53:44;3.20;;;1.60;;
41436;SDS011;27178;49.460;10.850;2022-07-06T06:56:13;2.63;;;1.83;;
41436;SDS011;27178;49.460;10.850;2022-07-06T06:58:41;1.85;;;1.60;;
41436;SDS011;27178;49.460;10.850;2022-07-06T07:01:44;2.78;;;1.70;;
41436;SDS011;27178;49.460;10.850;2022-07-06T07:04:20;4.07;;;2.03;;
41436;SDS011;27178;49.460;10.850;2022-07-06T07:06:49;1.60;;;1.48;;
41436;SDS011;27178;49.460;10.850;2022-07-06T07:09:17;1.92;;;1.40;;
41436;SDS011;27178;49.460;10.850;2022-07-06T07:11:45;3.13;;;1.40;;
41436;SDS011;27178;49.460;10.850;2022-07-06T07:14:13;1.45;;;1.35;;
41436;SDS011;27178;49.460;10.850;2022-07-06T07:16:41;1.50;;;1.40;;
41436;SDS011;27178;49.460;10.850;2022-07-06T07:19:10;1.58;;;1.48;;
41436;SDS011;27178;49.460;10.850;2022-07-06T07:21:39;2.17;;;1.38;;
41436;SDS011;27178;49.460;10.850;2022-07-06T07:24:07;2.30;;;1.67;;
41436;SDS011;27178;49.460;10.850;2022-07-06T07:26:36;1.73;;;1.63;;
41436;SDS011;27178;49.460;10.850;2022-07-06T07:29:04;1.73;;;1.40;;
41436;SDS011;27178;49.460;10.850;2022-07-06T07:31:32;1.60;;;1.50;;
41436;SDS011;27178;49.460;10.850;2022-07-06T07:34:01;2.22;;;1.27;;
41436;SDS011;27178;49.460;10.850;2022-07-06T07:36:30;9.13;;;1.88;;
41436;SDS011;27178;49.460;10.850;2022-07-06T07:38:58;6.65;;;5.70;;
41436;SDS011;27178;49.460;10.850;2022-07-06T07:41:27;7.05;;;5.82;;
41436;SDS011;27178;49.460;10.850;2022-07-06T07:43:55;5.32;;;4.13;;
41436;SDS011;27178;49.460;10.850;2022-07-06T07:46:23;3.28;;;2.63;;
41436;SDS011;27178;49.460;10.850;2022-07-06T07:48:51;2.25;;;1.98;;
41436;SDS011;27178;49.460;10.850;2022-07-06T07:51:20;1.88;;;1.73;;
41436;SDS011;27178;49.460;10.850;2022-07-06T07:53:49;1.50;;;1.40;;
41436;SDS011;27178;49.460;10.850;2022-07-06T07:56:18;1.70;;;1.52;;
41436;SDS011;27178;49.460;10.850;2022-07-06T07:58:46;3.08;;;1.42;;
41436;SDS011;27178;49.460;10.850;2022-07-06T08:01:15;1.77;;;1.50;;
41436;SDS011;27178;49.460;10.850;2022-07-06T08:03:43;1.45;;;1.35;;
41436;SDS011;27178;49.460;10.850;2022-07-06T08:06:12;3.05;;;1.70;;
41436;SDS011;27178;49.460;10.850;2022-07-06T08:08:40;1.45;;;1.35;;
41436;SDS011;27178;49.460;10.850;2022-07-06T08:11:09;2.35;;;1.40;;
41436;SDS011;27178;49.460;10.850;2022-07-06T08:13:44;1.27;;;1.17;;
41436;SDS011;27178;49.460;10.850;2022-07-06T08:16:12;2.03;;;1.40;;
41436;SDS011;27178;49.460;10.850;2022-07-06T08:18:40;1.58;;;1.25;;
41436;SDS011;27178;49.460;10.850;2022-07-06T08:21:09;1.50;;;1.25;;
41436;SDS011;27178;49.460;10.850;2022-07-06T08:23:53;1.65;;;1.55;;
41436;SDS011;27178;49.460;10.850;2022-07-06T08:26:24;1.30;;;1.17;;
41436;SDS011;27178;49.460;10.850;2022-07-06T08:28:52;2.70;;;1.48;;
41436;SDS011;27178;49.460;10.850;2022-07-06T08:31:20;1.20;;;1.10;;
41436;SDS011;27178;49.460;10.850;2022-07-06T08:34:08;1.33;;;1.23;;
41436;SDS011;27178;49.460;10.850;2022-07-06T08:36:36;1.52;;;1.30;;
41436;SDS011;27178;49.460;10.850;2022-07-06T08:41:43;1.25;;;1.10;;
41436;SDS011;27178;49.460;10.850;2022-07-06T08:44:14;1.73;;;1.20;;
41436;SDS011;27178;49.460;10.850;2022-07-06T08:46:42;2.63;;;1.17;;
41436;SDS011;27178;49.460;10.850;2022-07-06T08:49:12;1.50;;;1.40;;
41436;SDS011;27178;49.460;10.850;2022-07-06T08:51:42;3.00;;;1.40;;
41436;SDS011;27178;49.460;10.850;2022-07-06T08:54:10;1.50;;;1.30;;
41436;SDS011;27178;49.460;10.850;2022-07-06T08:56:39;2.00;;;1.20;;
41436;SDS011;27178;49.460;10.850;2022-07-06T08:59:15;1.48;;;1.27;;
41436;SDS011;27178;49.460;10.850;2022-07-06T09:01:43;3.50;;;1.48;;
41436;SDS011;27178;49.460;10.850;2022-07-06T09:04:12;1.23;;;1.13;;
41436;SDS011;27178;49.460;10.850;2022-07-06T09:06:45;5.22;;;1.52;;
41436;SDS011;27178;49.460;10.850;2022-07-06T09:09:16;2.00;;;1.20;;
41436;SDS011;27178;49.460;10.850;2022-07-06T09:11:47;2.15;;;1.40;;
41436;SDS011;27178;49.460;10.850;2022-07-06T09:14:17;1.30;;;1.20;;
41436;SDS011;27178;49.460;10.850;2022-07-06T09:16:46;1.42;;;1.33;;
41436;SDS011;27178;49.460;10.850;2022-07-06T09:19:20;1.77;;;1.35;;
41436;SDS011;27178;49.460;10.850;2022-07-06T09:21:48;1.40;;;1.30;;
41436;SDS011;27178;49.460;10.850;2022-07-06T09:24:16;1.90;;;1.20;;
41436;SDS011;27178;49.460;10.850;2022-07-06T09:26:46;4.78;;;0.90;;
41436;SDS011;27178;49.460;10.850;2022-07-06T09:29:17;0.98;;;0.98;;
41436;SDS011;27178;49.460;10.850;2022-07-06T09:31:55;3.13;;;1.52;;
41436;SDS011;27178;49.460;10.850;2022-07-06T09:34:24;1.10;;;1.00;;
41436;SDS011;27178;49.460;10.850;2022-07-06T09:39:52;1.42;;;1.15;;
41436;SDS011;27178;49.460;10.850;2022-07-06T09:42:23;1.20;;;1.10;;
41436;SDS011;27178;49.460;10.850;2022-07-06T09:44:53;2.10;;;1.27;;
41436;SDS011;27178;49.460;10.850;2022-07-06T09:47:22;1.52;;;1.15;;
41436;SDS011;27178;49.460;10.850;2022-07-06T09:49:50;2.05;;;1.33;;
41436;SDS011;27178;49.460;10.850;2022-07-06T09:52:23;5.22;;;1.23;;
41436;SDS011;27178;49.460;10.850;2022-07-06T09:54:53;1.63;;;1.40;;
41436;SDS011;27178;49.460;10.850;2022-07-06T09:57:21;2.30;;;1.00;;
41436;SDS011;27178;49.460;10.850;2022-07-06T09:59:51;1.58;;;1.23;;
41436;SDS011;27178;49.460;10.850;2022-07-06T10:02:20;4.43;;;1.20;;
41436;SDS011;27178;49.460;10.850;2022-07-06T10:04:49;2.75;;;1.23;;
41436;SDS011;27178;49.460;10.850;2022-07-06T10:07:19;1.60;;;1.48;;
41436;SDS011;27178;49.460;10.850;2022-07-06T10:09:51;2.25;;;1.30;;
41436;SDS011;27178;49.460;10.850;2022-07-06T10:12:19;1.40;;;1.30;;
41436;SDS011;27178;49.460;10.850;2022-07-06T10:14:48;1.15;;;1.08;;
41436;SDS011;27178;49.460;10.850;2022-07-06T10:17:17;2.00;;;1.30;;
41436;SDS011;27178;49.460;10.850;2022-07-06T10:19:48;1.67;;;1.20;;
41436;SDS011;27178;49.460;10.850;2022-07-06T10:22:17;1.20;;;1.10;;
41436;SDS011;27178;49.460;10.850;2022-07-06T10:24:47;1.55;;;1.15;;
41436;SDS011;27178;49.460;10.850;2022-07-06T10:27:16;2.53;;;1.20;;
41436;SDS011;27178;49.460;10.850;2022-07-06T10:29:44;1.20;;;0.93;;
41436;SDS011;27178;49.460;10.850;2022-07-06T10:32:12;1.17;;;1.00;;
41436;SDS011;27178;49.460;10.850;2022-07-06T10:34:40;1.38;;;0.90;;
41436;SDS011;27178;49.460;10.850;2022-07-06T10:37:09;1.30;;;0.98;;
41436;SDS011;27178;49.460;10.850;2022-07-06T10:39:50;1.63;;;1.23;;
41436;SDS011;27178;49.460;10.850;2022-07-06T10:42:40;2.28;;;1.48;;
41436;SDS011;27178;49.460;10.850;2022-07-06T10:45:09;2.60;;;1.20;;
41436;SDS011;27178;49.460;10.850;2022-07-06T10:47:39;2.20;;;1.13;;
41436;SDS011;27178;49.460;10.850;2022-07-06T10:50:08;1.88;;;1.30;;
41436;SDS011;27178;49.460;10.850;2022-07-06T10:52:50;3.08;;;1.25;;
41436;SDS011;27178;49.460;10.850;2022-07-06T10:55:29;5.10;;;1.42;;
41436;SDS011;27178;49.460;10.850;2022-07-06T10:57:58;0.88;;;0.88;;
41436;SDS011;27178;49.460;10.850;2022-07-06T11:00:41;2.20;;;1.40;;
41436;SDS011;27178;49.460;10.850;2022-07-06T11:03:31;3.10;;;0.95;;
41436;SDS011;27178;49.460;10.850;2022-07-06T11:06:07;1.90;;;1.15;;
41436;SDS011;27178;49.460;10.850;2022-07-06T11:11:37;1.38;;;1.23;;
41436;SDS011;27178;49.460;10.850;2022-07-06T11:14:08;1.17;;;1.10;;
41436;SDS011;27178;49.460;10.850;2022-07-06T11:16:38;1.13;;;1.02;;
41436;SDS011;27178;49.460;10.850;2022-07-06T11:19:08;2.10;;;1.00;;
41436;SDS011;27178;49.460;10.850;2022-07-06T11:21:38;2.53;;;1.13;;
41436;SDS011;27178;49.460;10.850;2022-07-06T11:24:11;1.25;;;1.05;;
41436;SDS011;27178;49.460;10.850;2022-07-06T11:26:41;2.25;;;1.13;;
41436;SDS011;27178;49.460;10.850;2022-07-06T11:29:12;1.45;;;1.00;;
41436;SDS011;27178;49.460;10.850;2022-07-06T11:31:44;0.98;;;0.98;;
41436;SDS011;27178;49.460;10.850;2022-07-06T11:34:17;2.17;;;1.60;;
41436;SDS011;27178;49.460;10.850;2022-07-06T11:36:47;2.15;;;1.55;;
41436;SDS011;27178;49.460;10.850;2022-07-06T11:39:16;1.48;;;1.30;;
41436;SDS011;27178;49.460;10.850;2022-07-06T11:41:44;1.25;;;1.10;;
41436;SDS011;27178;49.460;10.850;2022-07-06T11:44:17;1.30;;;1.20;;
41436;SDS011;27178;49.460;10.850;2022-07-06T11:46:46;1.38;;;1.27;;
41436;SDS011;27178;49.460;10.850;2022-07-06T11:49:14;1.83;;;1.42;;
41436;SDS011;27178;49.460;10.850;2022-07-06T11:51:44;2.03;;;1.30;;
41436;SDS011;27178;49.460;10.850;2022-07-06T11:54:13;2.90;;;1.40;;
41436;SDS011;27178;49.460;10.850;2022-07-06T11:56:47;1.27;;;0.95;;
41436;SDS011;27178;49.460;10.850;2022-07-06T11:59:16;4.05;;;1.15;;
41436;SDS011;27178;49.460;10.850;2022-07-06T12:01:47;3.40;;;0.95;;
41436;SDS011;27178;49.460;10.850;2022-07-06T12:04:16;1.30;;;1.00;;
41436;SDS011;27178;49.460;10.850;2022-07-06T12:06:44;1.00;;;0.98;;
41436;SDS011;27178;49.460;10.850;2022-07-06T12:09:13;1.27;;;1.17;;
41436;SDS011;27178;49.460;10.850;2022-07-06T12:11:41;2.72;;;1.02;;
41436;SDS011;27178;49.460;10.850;2022-07-06T12:14:15;1.73;;;1.13;;
41436;SDS011;27178;49.460;10.850;2022-07-06T12:16:45;1.05;;;0.90;;
41436;SDS011;27178;49.460;10.850;2022-07-06T12:19:15;1.65;;;0.93;;
41436;SDS011;27178;49.460;10.850;2022-07-06T12:21:51;1.13;;;1.00;;
41436;SDS011;27178;49.460;10.850;2022-07-06T12:24:20;2.92;;;1.10;;
41436;SDS011;27178;49.460;10.850;2022-07-06T12:26:49;1.08;;;0.80;;
41436;SDS011;27178;49.460;10.850;2022-07-06T12:29:20;1.52;;;1.10;;
41436;SDS011;27178;49.460;10.850;2022-07-06T12:31:49;2.05;;;1.10;;
41436;SDS011;27178;49.460;10.850;2022-07-06T12:34:20;1.48;;;0.90;;
41436;SDS011;27178;49.460;10.850;2022-07-06T12:36:49;1.30;;;1.20;;
41436;SDS011;27178;49.460;10.850;2022-07-06T12:39:19;3.47;;;1.23;;
41436;SDS011;27178;49.460;10.850;2022-07-06T12:41:49;1.27;;;1.23;;
41436;SDS011;27178;49.460;10.850;2022-07-06T12:44:21;1.23;;;0.90;;
41436;SDS011;27178;49.460;10.850;2022-07-06T12:46:50;1.42;;;1.15;;
41436;SDS011;27178;49.460;10.850;2022-07-06T12:49:28;1.08;;;0.82;;
41436;SDS011;27178;49.460;10.850;2022-07-06T12:51:57;0.90;;;0.90;;
41436;SDS011;27178;49.460;10.850;2022-07-06T12:54:28;2.38;;;1.45;;
41436;SDS011;27178;49.460;10.850;2022-07-06T12:57:08;1.35;;;1.20;;
41436;SDS011;27178;49.460;10.850;2022-07-06T12:59:41;1.50;;;1.10;;
41436;SDS011;27178;49.460;10.850;2022-07-06T13:02:17;1.08;;;1.02;;
41436;SDS011;27178;49.460;10.850;2022-07-06T13:05:07;2.53;;;1.00;;
41436;SDS011;27178;49.460;10.850;2022-07-06T13:07:37;2.60;;;0.95;;
41436;SDS011;27178;49.460;10.850;2022-07-06T13:10:11;2.30;;;1.10;;
41436;SDS011;27178;49.460;10.850;2022-07-06T13:12:40;0.73;;;0.70;;
41436;SDS011;27178;49.460;10.850;2022-07-06T13:15:10;0.90;;;0.90;;
41436;SDS011;27178;49.460;10.850;2022-07-06T13:17:39;2.15;;;1.13;;
41436;SDS011;27178;49.460;10.850;2022-07-06T13:20:07;1.35;;;0.90;;
41436;SDS011;27178;49.460;10.850;2022-07-06T13:22:37;0.98;;;0.90;;
41436;SDS011;27178;49.460;10.850;2022-07-06T13:25:06;1.55;;;1.00;;
41436;SDS011;27178;49.460;10.850;2022-07-06T13:27:34;3.85;;;1.00;;
41436;SDS011;27178;49.460;10.850;2022-07-06T13:30:03;1.05;;;0.95;;
41436;SDS011;27178;49.460;10.850;2022-07-06T13:32:33;2.40;;;0.93;;
41436;SDS011;27178;49.460;10.850;2022-07-06T13:35:01;0.90;;;0.65;;
41436;SDS011;27178;49.460;10.850;2022-07-06T13:37:30;1.23;;;0.88;;
41436;SDS011;27178;49.460;10.850;2022-07-06T13:39:59;0.95;;;0.90;;
41436;SDS011;27178;49.460;10.850;2022-07-06T13:42:28;1.35;;;0.93;;
41436;SDS011;27178;49.460;10.850;2022-07-06T13:44:56;2.53;;;1.00;;
41436;SDS011;27178;49.460;10.850;2022-07-06T13:47:24;1.98;;;1.05;;
41436;SDS011;27178;49.460;10.850;2022-07-06T13:49:54;2.40;;;0.90;;
41436;SDS011;27178;49.460;10.850;2022-07-06T13:52:22;2.50;;;1.00;;
41436;SDS011;27178;49.460;10.850;2022-07-06T13:54:50;2.00;;;1.00;;
41436;SDS011;27178;49.460;10.850;2022-07-06T13:57:26;1.58;;;1.13;;
41436;SDS011;27178;49.460;10.850;2022-07-06T13:59:55;2.95;;;0.77;;
41436;SDS011;27178;49.460;10.850;2022-07-06T14:02:23;0.88;;;0.88;;
41436;SDS011;27178;49.460;10.850;2022-07-06T14:04:52;0.68;;;0.68;;
41436;SDS011;27178;49.460;10.850;2022-07-06T14:07:21;3.10;;;0.88;;
41436;SDS011;27178;49.460;10.850;2022-07-06T14:09:49;0.88;;;0.70;;
41436;SDS011;27178;49.460;10.850;2022-07-06T14:12:18;1.77;;;0.80;;
41436;SDS011;27178;49.460;10.850;2022-07-06T14:14:48;2.38;;;1.10;;
41436;SDS011;27178;49.460;10.850;2022-07-06T14:17:16;1.95;;;1.10;;
41436;SDS011;27178;49.460;10.850;2022-07-06T14:19:44;1.65;;;0.80;;
41436;SDS011;27178;49.460;10.850;2022-07-06T14:22:13;1.30;;;0.95;;
41436;SDS011;27178;49.460;10.850;2022-07-06T14:24:42;2.55;;;1.10;;
41436;SDS011;27178;49.460;10.850;2022-07-06T14:27:10;0.95;;;0.90;;
41436;SDS011;27178;49.460;10.850;2022-07-06T14:29:38;2.38;;;1.05;;
41436;SDS011;27178;49.460;10.850;2022-07-06T14:32:06;1.00;;;0.90;;
41436;SDS011;27178;49.460;10.850;2022-07-06T14:34:34;0.82;;;0.82;;
41436;SDS011;27178;49.460;10.850;2022-07-06T14:37:03;0.68;;;0.68;;
41436;SDS011;27178;49.460;10.850;2022-07-06T14:39:31;3.20;;;0.85;;
41436;SDS011;27178;49.460;10.850;2022-07-06T14:42:00;0.98;;;0.80;;
41436;SDS011;27178;49.460;10.850;2022-07-06T14:44:28;0.70;;;0.70;;
41436;SDS011;27178;49.460;10.850;2022-07-06T14:46:56;4.65;;;1.10;;
41436;SDS011;27178;49.460;10.850;2022-07-06T14:49:24;2.13;;;1.20;;
41436;SDS011;27178;49.460;10.850;2022-07-06T14:51:52;1.48;;;1.00;;
41436;SDS011;27178;49.460;10.850;2022-07-06T14:54:20;1.80;;;1.00;;
41436;SDS011;27178;49.460;10.850;2022-07-06T14:56:49;1.00;;;1.00;;
41436;SDS011;27178;49.460;10.850;2022-07-06T14:59:19;1.83;;;0.90;;
41436;SDS011;27178;49.460;10.850;2022-07-06T15:01:50;1.02;;;0.98;;
41436;SDS011;27178;49.460;10.850;2022-07-06T15:04:28;0.80;;;0.80;;